sensor_id;sensor_type;location;lat;lon;timestamp;P1;durP1;ratioP1;P2;durP2;ratioP2
12842;SDS011;35724;49.324;-123.118;2023-04-28T00:18:03;4.05;;;2.20;;
12842;SDS011;35724;49.324;-123.118;2023-04-28T00:28:12;2.40;;;1.60;;
12842;SDS011;35724;49.324;-123.118;2023-04-28T00:50:10;8.55;;;1.73;;
12842;SDS011;35724;49.324;-123.118;2023-04-28T01:00:23;3.70;;;1.48;;
12842;SDS011;35724;49.324;-123.118;2023-04-28T01:12:03;4.27;;;1.40;;
12842;SDS011;35724;49.324;-123.118;2023-04-28T01:22:18;2.28;;;1.10;;
12842;SDS011;35724;49.324;-123.118;2023-04-28T01:32:27;2.55;;;1.20;;
12842;SDS011;35724;49.324;-123.118;2023-04-28T01:42:38;2.85;;;1.60;;
12842;SDS011;35724;49.324;-123.118;2023-04-28T01:52:47;2.08;;;1.50;;
12842;SDS011;35724;49.324;-123.118;2023-04-28T02:02:54;3.40;;;1.83;;
12842;SDS011;35724;49.324;-123.118;2023-04-28T02:13:10;2.55;;;1.52;;
12842;SDS011;35724;49.324;-123.118;2023-04-28T02:35:13;2.33;;;1.30;;
12842;SDS011;35724;49.324;-123.118;2023-04-28T02:58:39;1.65;;;1.10;;
12842;SDS011;35724;49.324;-123.118;2023-04-28T03:09:37;1.85;;;1.02;;
12842;SDS011;35724;49.324;-123.118;2023-04-28T03:53:55;7.90;;;3.25;;
12842;SDS011;35724;49.324;-123.118;2023-04-28T04:04:12;5.80;;;2.88;;
12842;SDS011;35724;49.324;-123.118;2023-04-28T04:14:22;8.65;;;3.03;;
12842;SDS011;35724;49.324;-123.118;2023-04-28T04:24:31;4.82;;;2.42;;
12842;SDS011;35724;49.324;-123.118;2023-04-28T04:34:43;4.45;;;2.35;;
12842;SDS011;35724;49.324;-123.118;2023-04-28T04:44:55;4.07;;;2.13;;
12842;SDS011;35724;49.324;-123.118;2023-04-28T04:55:08;4.18;;;1.77;;
12842;SDS011;35724;49.324;-123.118;2023-04-28T05:05:17;3.25;;;1.80;;
12842;SDS011;35724;49.324;-123.118;2023-04-28T05:15:54;3.53;;;1.70;;
12842;SDS011;35724;49.324;-123.118;2023-04-28T05:26:27;2.38;;;1.60;;
12842;SDS011;35724;49.324;-123.118;2023-04-28T05:38:03;2.83;;;2.50;;
12842;SDS011;35724;49.324;-123.118;2023-04-28T05:48:23;2.13;;;1.77;;
12842;SDS011;35724;49.324;-123.118;2023-04-28T06:09:40;1.30;;;1.20;;
12842;SDS011;35724;49.324;-123.118;2023-04-28T06:19:49;1.70;;;1.50;;
12842;SDS011;35724;49.324;-123.118;2023-04-28T06:30:00;1.55;;;1.45;;
12842;SDS011;35724;49.324;-123.118;2023-04-28T06:40:08;1.75;;;1.23;;
12842;SDS011;35724;49.324;-123.118;2023-04-28T06:50:26;1.20;;;1.10;;
12842;SDS011;35724;49.324;-123.118;2023-04-28T07:00:34;1.30;;;1.20;;
12842;SDS011;35724;49.324;-123.118;2023-04-28T07:10:44;1.20;;;1.10;;
12842;SDS011;35724;49.324;-123.118;2023-04-28T07:20:52;1.38;;;0.90;;
12842;SDS011;35724;49.324;-123.118;2023-04-28T07:31:02;0.80;;;0.80;;
12842;SDS011;35724;49.324;-123.118;2023-04-28T07:41:15;1.00;;;0.90;;
12842;SDS011;35724;49.324;-123.118;2023-04-28T07:51:25;1.10;;;1.00;;
12842;SDS011;35724;49.324;-123.118;2023-04-28T08:01:32;0.98;;;0.90;;
12842;SDS011;35724;49.324;-123.118;2023-04-28T08:11:41;0.90;;;0.90;;
12842;SDS011;35724;49.324;-123.118;2023-04-28T08:21:48;1.00;;;0.90;;
12842;SDS011;35724;49.324;-123.118;2023-04-28T08:32:01;1.10;;;1.00;;
12842;SDS011;35724;49.324;-123.118;2023-04-28T08:42:09;0.75;;;0.75;;
12842;SDS011;35724;49.324;-123.118;2023-04-28T08:52:19;0.70;;;0.70;;
12842;SDS011;35724;49.324;-123.118;2023-04-28T09:02:26;0.90;;;0.90;;
12842;SDS011;35724;49.324;-123.118;2023-04-28T09:12:43;0.70;;;0.70;;
12842;SDS011;35724;49.324;-123.118;2023-04-28T09:23:11;0.80;;;0.80;;
12842;SDS011;35724;49.324;-123.118;2023-04-28T09:33:24;0.70;;;0.70;;
12842;SDS011;35724;49.324;-123.118;2023-04-28T09:43:35;1.13;;;0.90;;
12842;SDS011;35724;49.324;-123.118;2023-04-28T09:54:06;0.80;;;0.80;;
12842;SDS011;35724;49.324;-123.118;2023-04-28T10:04:13;1.00;;;0.90;;
12842;SDS011;35724;49.324;-123.118;2023-04-28T10:14:25;1.10;;;0.80;;
12842;SDS011;35724;49.324;-123.118;2023-04-28T10:24:43;0.90;;;0.90;;
12842;SDS011;35724;49.324;-123.118;2023-04-28T10:46:02;1.00;;;0.70;;
12842;SDS011;35724;49.324;-123.118;2023-04-28T10:56:29;0.70;;;0.70;;
12842;SDS011;35724;49.324;-123.118;2023-04-28T11:06:40;0.88;;;0.80;;
12842;SDS011;35724;49.324;-123.118;2023-04-28T11:16:54;0.68;;;0.68;;
12842;SDS011;35724;49.324;-123.118;2023-04-28T11:38:00;0.70;;;0.70;;
12842;SDS011;35724;49.324;-123.118;2023-04-28T11:48:21;0.82;;;0.82;;
12842;SDS011;35724;49.324;-123.118;2023-04-28T11:58:29;0.70;;;0.70;;
12842;SDS011;35724;49.324;-123.118;2023-04-28T12:08:51;0.70;;;0.70;;
12842;SDS011;35724;49.324;-123.118;2023-04-28T12:18:59;1.10;;;0.70;;
12842;SDS011;35724;49.324;-123.118;2023-04-28T12:39:44;0.70;;;0.70;;
12842;SDS011;35724;49.324;-123.118;2023-04-28T12:49:59;0.80;;;0.80;;
12842;SDS011;35724;49.324;-123.118;2023-04-28T13:10:40;0.70;;;0.70;;
12842;SDS011;35724;49.324;-123.118;2023-04-28T13:20:48;0.70;;;0.70;;
12842;SDS011;35724;49.324;-123.118;2023-04-28T13:31:11;0.90;;;0.80;;
12842;SDS011;35724;49.324;-123.118;2023-04-28T13:41:19;1.20;;;0.80;;
12842;SDS011;35724;49.324;-123.118;2023-04-28T13:51:28;1.30;;;0.80;;
12842;SDS011;35724;49.324;-123.118;2023-04-28T14:01:36;1.17;;;1.00;;
12842;SDS011;35724;49.324;-123.118;2023-04-28T14:11:44;1.27;;;1.10;;
12842;SDS011;35724;49.324;-123.118;2023-04-28T14:21:52;2.03;;;1.00;;
12842;SDS011;35724;49.324;-123.118;2023-04-28T14:32:01;1.58;;;1.27;;
12842;SDS011;35724;49.324;-123.118;2023-04-28T14:42:08;1.80;;;1.27;;
12842;SDS011;35724;49.324;-123.118;2023-04-28T14:52:17;2.25;;;1.20;;
12842;SDS011;35724;49.324;-123.118;2023-04-28T15:02:45;4.82;;;1.27;;
12842;SDS011;35724;49.324;-123.118;2023-04-28T15:13:41;5.00;;;1.40;;
12842;SDS011;35724;49.324;-123.118;2023-04-28T15:23:49;8.27;;;1.50;;
12842;SDS011;35724;49.324;-123.118;2023-04-28T15:34:02;2.72;;;1.20;;
12842;SDS011;35724;49.324;-123.118;2023-04-28T15:44:09;2.20;;;1.30;;
12842;SDS011;35724;49.324;-123.118;2023-04-28T15:54:19;1.90;;;1.33;;
12842;SDS011;35724;49.324;-123.118;2023-04-28T16:04:30;2.45;;;1.60;;
12842;SDS011;35724;49.324;-123.118;2023-04-28T16:15:00;2.72;;;1.63;;
12842;SDS011;35724;49.324;-123.118;2023-04-28T16:25:08;4.25;;;1.63;;
12842;SDS011;35724;49.324;-123.118;2023-04-28T16:35:17;2.00;;;1.50;;
12842;SDS011;35724;49.324;-123.118;2023-04-28T16:45:24;1.50;;;1.30;;
12842;SDS011;35724;49.324;-123.118;2023-04-28T16:55:34;3.20;;;1.50;;
12842;SDS011;35724;49.324;-123.118;2023-04-28T17:05:42;1.88;;;1.40;;
12842;SDS011;35724;49.324;-123.118;2023-04-28T17:15:55;4.03;;;1.60;;
12842;SDS011;35724;49.324;-123.118;2023-04-28T17:26:03;3.72;;;1.40;;
12842;SDS011;35724;49.324;-123.118;2023-04-28T17:36:12;2.63;;;1.58;;
12842;SDS011;35724;49.324;-123.118;2023-04-28T17:46:19;2.95;;;1.35;;
12842;SDS011;35724;49.324;-123.118;2023-04-28T17:56:28;1.83;;;1.30;;
12842;SDS011;35724;49.324;-123.118;2023-04-28T18:06:36;2.30;;;1.20;;
12842;SDS011;35724;49.324;-123.118;2023-04-28T18:29:02;3.63;;;1.75;;
12842;SDS011;35724;49.324;-123.118;2023-04-28T18:39:09;3.42;;;1.70;;
12842;SDS011;35724;49.324;-123.118;2023-04-28T18:49:20;2.20;;;1.70;;
12842;SDS011;35724;49.324;-123.118;2023-04-28T18:59:27;2.15;;;1.63;;
12842;SDS011;35724;49.324;-123.118;2023-04-28T19:09:46;2.75;;;1.42;;
12842;SDS011;35724;49.324;-123.118;2023-04-28T19:20:00;2.13;;;1.48;;
12842;SDS011;35724;49.324;-123.118;2023-04-28T19:30:18;1.60;;;1.50;;
12842;SDS011;35724;49.324;-123.118;2023-04-28T19:40:26;2.80;;;1.50;;
12842;SDS011;35724;49.324;-123.118;2023-04-28T19:50:36;4.00;;;1.27;;
12842;SDS011;35724;49.324;-123.118;2023-04-28T20:00:45;4.30;;;1.55;;
12842;SDS011;35724;49.324;-123.118;2023-04-28T20:11:22;1.60;;;1.20;;
12842;SDS011;35724;49.324;-123.118;2023-04-28T20:22:26;1.50;;;1.40;;
12842;SDS011;35724;49.324;-123.118;2023-04-28T20:32:47;1.98;;;1.40;;
12842;SDS011;35724;49.324;-123.118;2023-04-28T20:53:29;3.38;;;1.67;;
12842;SDS011;35724;49.324;-123.118;2023-04-28T21:03:36;3.00;;;1.60;;
12842;SDS011;35724;49.324;-123.118;2023-04-28T21:13:47;1.63;;;1.40;;
12842;SDS011;35724;49.324;-123.118;2023-04-28T21:23:54;2.13;;;1.50;;
12842;SDS011;35724;49.324;-123.118;2023-04-28T21:34:03;1.83;;;1.40;;
12842;SDS011;35724;49.324;-123.118;2023-04-28T21:44:10;1.80;;;1.30;;
12842;SDS011;35724;49.324;-123.118;2023-04-28T21:54:19;1.80;;;1.40;;
12842;SDS011;35724;49.324;-123.118;2023-04-28T22:04:25;3.38;;;1.50;;
12842;SDS011;35724;49.324;-123.118;2023-04-28T22:14:35;2.70;;;1.60;;
12842;SDS011;35724;49.324;-123.118;2023-04-28T22:24:43;2.90;;;1.52;;
12842;SDS011;35724;49.324;-123.118;2023-04-28T22:34:54;2.30;;;1.50;;
12842;SDS011;35724;49.324;-123.118;2023-04-28T22:45:01;1.77;;;1.48;;
12842;SDS011;35724;49.324;-123.118;2023-04-28T22:55:11;2.10;;;1.50;;
12842;SDS011;35724;49.324;-123.118;2023-04-28T23:16:19;1.55;;;1.27;;
12842;SDS011;35724;49.324;-123.118;2023-04-28T23:26:26;2.22;;;1.40;;
12842;SDS011;35724;49.324;-123.118;2023-04-28T23:36:35;2.72;;;1.30;;
12842;SDS011;35724;49.324;-123.118;2023-04-28T23:46:42;1.38;;;1.15;;
12842;SDS011;35724;49.324;-123.118;2023-04-28T23:56:53;2.22;;;1.40;;
